GABS Airport Information

Runway Information
Runway 06 Length 8879 ft width 148 ft
Elevation 1187 ft Threshold 0 ft Heading 57
Runway 24 Length 8879 ft Width 148 ft
Elevation 1244 ft Threshold 0 ft Heading 237
Airport Frequencies
Type A/G Name A/G Frequency 667.3 MHZ
Type ACC Name ACC Frequency 119.1 MHZ
Type TWR Name TWR Frequency 118.3 MHZ
Airport Navaids
Type VOR-DME Name Bamako/Senou Frequency 113700 KHZ
Type NDB Name Bamako/Senou Frequency 301 KHZ
Airport Weather Information & NOTAM
ADDS - METARS form results

(0634 UTC 18 February 2020)
Data provider http://aviationweather.gov/metar/data/
 
METAR text: GABS 180600Z 06007KT CAVOK 22/M01 Q1013 NOSIG
Conditions at: GABS (BAMAKO/SENOU (MI, ML) observed 0600 UTC 18 February 2020
Temperature: 22.0°C (72°F)
Dewpoint: -1.0°C (30°F) [RH = 21%]
Pressure (altimeter): 29.91 inches Hg (1013.0 mb)
Winds: from the ENE (60 degrees) at 8 MPH (7 knots; 3.6 m/s)
Visibility: 6 or more miles (10+ km)
Ceiling: ceiling and visibility are OK
Clouds: unknown
Weather: no significant weather observed at this time

Forecast for: GABS (BAMAKO/SENOU (MI, ML)
Text: TAF GABS 180512Z 1806/1912 06010KT CAVOK
Forecast period: 0600 UTC 18 February 2020 to 1200 UTC 19 February 2020
Forecast type: FROM: standard forecast or significant change
Winds: from the ENE (60 degrees) at 12 MPH (10 knots; 5.1 m/s)
Visibility: 6 or more miles 10+ km)
Ceiling: unknown
Clouds: missing
Weather: NSW  (no significant weather)